sensor_id;sensor_type;location;lat;lon;timestamp;P1;durP1;ratioP1;P2;durP2;ratioP2
82793;SDS011;72533;52.852;6.176;2024-02-16T00:02:15;6.60;;;2.53;;
82793;SDS011;72533;52.852;6.176;2024-02-16T00:04:40;8.97;;;2.90;;
82793;SDS011;72533;52.852;6.176;2024-02-16T00:07:05;6.43;;;1.67;;
82793;SDS011;72533;52.852;6.176;2024-02-16T00:09:31;6.83;;;2.73;;
82793;SDS011;72533;52.852;6.176;2024-02-16T00:11:56;10.60;;;2.77;;
82793;SDS011;72533;52.852;6.176;2024-02-16T00:14:21;7.30;;;3.17;;
82793;SDS011;72533;52.852;6.176;2024-02-16T00:16:47;7.53;;;2.90;;
82793;SDS011;72533;52.852;6.176;2024-02-16T00:19:12;9.40;;;3.13;;
82793;SDS011;72533;52.852;6.176;2024-02-16T00:21:37;6.60;;;2.97;;
82793;SDS011;72533;52.852;6.176;2024-02-16T00:24:04;7.28;;;3.50;;
82793;SDS011;72533;52.852;6.176;2024-02-16T00:26:29;6.57;;;2.80;;
82793;SDS011;72533;52.852;6.176;2024-02-16T00:28:54;5.40;;;2.73;;
82793;SDS011;72533;52.852;6.176;2024-02-16T00:31:20;8.07;;;2.97;;
82793;SDS011;72533;52.852;6.176;2024-02-16T00:33:45;8.57;;;2.97;;
82793;SDS011;72533;52.852;6.176;2024-02-16T00:36:10;5.63;;;2.77;;
82793;SDS011;72533;52.852;6.176;2024-02-16T00:38:35;6.53;;;3.30;;
82793;SDS011;72533;52.852;6.176;2024-02-16T00:41:01;7.00;;;3.65;;
82793;SDS011;72533;52.852;6.176;2024-02-16T00:43:26;9.50;;;2.03;;
82793;SDS011;72533;52.852;6.176;2024-02-16T00:45:51;5.13;;;1.97;;
82793;SDS011;72533;52.852;6.176;2024-02-16T00:48:16;8.67;;;2.40;;
82793;SDS011;72533;52.852;6.176;2024-02-16T00:50:41;4.97;;;1.93;;
82793;SDS011;72533;52.852;6.176;2024-02-16T00:53:07;7.50;;;3.00;;
82793;SDS011;72533;52.852;6.176;2024-02-16T00:55:33;6.60;;;2.40;;
82793;SDS011;72533;52.852;6.176;2024-02-16T00:57:58;5.87;;;1.73;;
82793;SDS011;72533;52.852;6.176;2024-02-16T01:00:23;6.70;;;2.57;;
82793;SDS011;72533;52.852;6.176;2024-02-16T01:02:49;8.63;;;2.60;;
82793;SDS011;72533;52.852;6.176;2024-02-16T01:05:14;7.32;;;2.75;;
82793;SDS011;72533;52.852;6.176;2024-02-16T01:07:42;9.27;;;2.60;;
82793;SDS011;72533;52.852;6.176;2024-02-16T01:10:07;7.87;;;4.00;;
82793;SDS011;72533;52.852;6.176;2024-02-16T01:12:33;6.63;;;3.13;;
82793;SDS011;72533;52.852;6.176;2024-02-16T01:14:58;6.67;;;4.60;;
82793;SDS011;72533;52.852;6.176;2024-02-16T01:17:24;9.57;;;2.83;;
82793;SDS011;72533;52.852;6.176;2024-02-16T01:19:49;5.80;;;2.20;;
82793;SDS011;72533;52.852;6.176;2024-02-16T01:22:14;7.73;;;3.17;;
82793;SDS011;72533;52.852;6.176;2024-02-16T01:24:39;6.37;;;2.80;;
82793;SDS011;72533;52.852;6.176;2024-02-16T01:27:04;5.70;;;2.30;;
82793;SDS011;72533;52.852;6.176;2024-02-16T01:29:29;7.23;;;3.00;;
82793;SDS011;72533;52.852;6.176;2024-02-16T01:31:55;9.63;;;3.40;;
82793;SDS011;72533;52.852;6.176;2024-02-16T01:34:20;8.97;;;3.50;;
82793;SDS011;72533;52.852;6.176;2024-02-16T01:36:46;7.88;;;2.88;;
82793;SDS011;72533;52.852;6.176;2024-02-16T01:39:11;6.47;;;3.43;;
82793;SDS011;72533;52.852;6.176;2024-02-16T01:41:39;8.17;;;2.90;;
82793;SDS011;72533;52.852;6.176;2024-02-16T01:44:04;7.70;;;2.95;;
82793;SDS011;72533;52.852;6.176;2024-02-16T01:46:30;9.05;;;3.08;;
82793;SDS011;72533;52.852;6.176;2024-02-16T01:48:55;6.90;;;2.83;;
82793;SDS011;72533;52.852;6.176;2024-02-16T01:51:22;8.05;;;2.58;;
82793;SDS011;72533;52.852;6.176;2024-02-16T01:53:47;7.70;;;2.92;;
82793;SDS011;72533;52.852;6.176;2024-02-16T01:56:13;8.73;;;2.97;;
82793;SDS011;72533;52.852;6.176;2024-02-16T01:58:38;7.23;;;3.07;;
82793;SDS011;72533;52.852;6.176;2024-02-16T02:01:03;7.33;;;3.40;;
82793;SDS011;72533;52.852;6.176;2024-02-16T02:03:29;8.27;;;3.20;;
82793;SDS011;72533;52.852;6.176;2024-02-16T02:05:54;7.77;;;3.17;;
82793;SDS011;72533;52.852;6.176;2024-02-16T02:08:21;6.30;;;4.05;;
82793;SDS011;72533;52.852;6.176;2024-02-16T02:10:46;6.80;;;3.77;;
82793;SDS011;72533;52.852;6.176;2024-02-16T02:13:11;7.43;;;3.27;;
82793;SDS011;72533;52.852;6.176;2024-02-16T02:15:36;7.97;;;2.90;;
82793;SDS011;72533;52.852;6.176;2024-02-16T02:18:02;6.97;;;3.37;;
82793;SDS011;72533;52.852;6.176;2024-02-16T02:20:27;6.70;;;3.93;;
82793;SDS011;72533;52.852;6.176;2024-02-16T02:22:52;7.03;;;3.60;;
82793;SDS011;72533;52.852;6.176;2024-02-16T02:25:18;8.43;;;4.10;;
82793;SDS011;72533;52.852;6.176;2024-02-16T02:27:43;6.63;;;3.23;;
82793;SDS011;72533;52.852;6.176;2024-02-16T02:30:08;6.50;;;3.47;;
82793;SDS011;72533;52.852;6.176;2024-02-16T02:32:34;6.82;;;2.90;;
82793;SDS011;72533;52.852;6.176;2024-02-16T02:34:59;7.40;;;3.83;;
82793;SDS011;72533;52.852;6.176;2024-02-16T02:37:24;8.37;;;4.90;;
82793;SDS011;72533;52.852;6.176;2024-02-16T02:39:49;6.90;;;3.33;;
82793;SDS011;72533;52.852;6.176;2024-02-16T02:42:14;8.33;;;4.23;;
82793;SDS011;72533;52.852;6.176;2024-02-16T02:44:40;7.90;;;3.47;;
82793;SDS011;72533;52.852;6.176;2024-02-16T02:47:05;6.43;;;3.00;;
82793;SDS011;72533;52.852;6.176;2024-02-16T02:49:30;6.47;;;3.03;;
82793;SDS011;72533;52.852;6.176;2024-02-16T02:51:56;8.60;;;6.15;;
82793;SDS011;72533;52.852;6.176;2024-02-16T02:54:22;5.60;;;2.60;;
82793;SDS011;72533;52.852;6.176;2024-02-16T02:56:47;6.20;;;3.10;;
82793;SDS011;72533;52.852;6.176;2024-02-16T02:59:12;6.73;;;3.47;;
82793;SDS011;72533;52.852;6.176;2024-02-16T03:01:37;6.90;;;2.57;;
82793;SDS011;72533;52.852;6.176;2024-02-16T03:04:03;7.07;;;3.30;;
82793;SDS011;72533;52.852;6.176;2024-02-16T03:06:28;8.25;;;3.70;;
82793;SDS011;72533;52.852;6.176;2024-02-16T03:08:53;10.50;;;3.87;;
82793;SDS011;72533;52.852;6.176;2024-02-16T03:11:19;6.40;;;2.97;;
82793;SDS011;72533;52.852;6.176;2024-02-16T03:13:45;8.88;;;3.13;;
82793;SDS011;72533;52.852;6.176;2024-02-16T03:16:10;10.63;;;4.63;;
82793;SDS011;72533;52.852;6.176;2024-02-16T03:18:35;7.97;;;5.50;;
82793;SDS011;72533;52.852;6.176;2024-02-16T03:21:01;7.25;;;3.30;;
82793;SDS011;72533;52.852;6.176;2024-02-16T03:23:26;6.45;;;3.90;;
82793;SDS011;72533;52.852;6.176;2024-02-16T03:25:52;10.15;;;3.60;;
82793;SDS011;72533;52.852;6.176;2024-02-16T03:28:17;9.53;;;4.50;;
82793;SDS011;72533;52.852;6.176;2024-02-16T03:30:43;8.60;;;3.10;;
82793;SDS011;72533;52.852;6.176;2024-02-16T03:33:08;9.60;;;6.93;;
82793;SDS011;72533;52.852;6.176;2024-02-16T03:35:34;7.27;;;3.80;;
82793;SDS011;72533;52.852;6.176;2024-02-16T03:37:59;5.88;;;3.20;;
82793;SDS011;72533;52.852;6.176;2024-02-16T03:40:24;6.80;;;3.33;;
82793;SDS011;72533;52.852;6.176;2024-02-16T03:42:51;7.13;;;3.78;;
82793;SDS011;72533;52.852;6.176;2024-02-16T03:45:16;6.88;;;3.72;;
82793;SDS011;72533;52.852;6.176;2024-02-16T03:47:41;9.40;;;3.73;;
82793;SDS011;72533;52.852;6.176;2024-02-16T03:50:07;7.75;;;3.15;;
82793;SDS011;72533;52.852;6.176;2024-02-16T03:52:32;7.10;;;3.03;;
82793;SDS011;72533;52.852;6.176;2024-02-16T03:54:57;6.07;;;3.13;;
82793;SDS011;72533;52.852;6.176;2024-02-16T03:57:22;10.23;;;3.00;;
82793;SDS011;72533;52.852;6.176;2024-02-16T03:59:47;7.47;;;3.43;;
82793;SDS011;72533;52.852;6.176;2024-02-16T04:02:13;6.80;;;4.60;;
82793;SDS011;72533;52.852;6.176;2024-02-16T04:04:41;7.35;;;4.45;;
82793;SDS011;72533;52.852;6.176;2024-02-16T04:07:06;6.70;;;3.78;;
82793;SDS011;72533;52.852;6.176;2024-02-16T04:09:32;7.00;;;3.57;;
82793;SDS011;72533;52.852;6.176;2024-02-16T04:11:57;10.18;;;3.50;;
82793;SDS011;72533;52.852;6.176;2024-02-16T04:14:22;8.63;;;3.83;;
82793;SDS011;72533;52.852;6.176;2024-02-16T04:16:47;10.07;;;3.23;;
82793;SDS011;72533;52.852;6.176;2024-02-16T04:19:13;6.87;;;3.27;;
82793;SDS011;72533;52.852;6.176;2024-02-16T04:21:38;9.90;;;3.77;;
82793;SDS011;72533;52.852;6.176;2024-02-16T04:24:03;6.57;;;4.13;;
82793;SDS011;72533;52.852;6.176;2024-02-16T04:26:28;7.40;;;4.13;;
82793;SDS011;72533;52.852;6.176;2024-02-16T04:28:53;7.03;;;4.03;;
82793;SDS011;72533;52.852;6.176;2024-02-16T04:31:19;10.23;;;3.63;;
82793;SDS011;72533;52.852;6.176;2024-02-16T04:33:44;7.93;;;3.73;;
82793;SDS011;72533;52.852;6.176;2024-02-16T04:36:09;6.50;;;3.37;;
82793;SDS011;72533;52.852;6.176;2024-02-16T04:38:34;6.97;;;3.43;;
82793;SDS011;72533;52.852;6.176;2024-02-16T04:41:00;8.18;;;3.33;;
82793;SDS011;72533;52.852;6.176;2024-02-16T04:43:25;7.93;;;3.90;;
82793;SDS011;72533;52.852;6.176;2024-02-16T04:45:50;6.43;;;3.43;;
82793;SDS011;72533;52.852;6.176;2024-02-16T04:48:16;6.80;;;3.73;;
82793;SDS011;72533;52.852;6.176;2024-02-16T04:50:41;6.77;;;2.63;;
82793;SDS011;72533;52.852;6.176;2024-02-16T04:53:06;8.77;;;5.20;;
82793;SDS011;72533;52.852;6.176;2024-02-16T04:55:31;7.40;;;4.00;;
82793;SDS011;72533;52.852;6.176;2024-02-16T04:57:56;7.77;;;3.63;;
82793;SDS011;72533;52.852;6.176;2024-02-16T05:00:22;9.20;;;3.67;;
82793;SDS011;72533;52.852;6.176;2024-02-16T05:02:47;7.25;;;3.13;;
82793;SDS011;72533;52.852;6.176;2024-02-16T05:05:12;7.53;;;3.57;;
82793;SDS011;72533;52.852;6.176;2024-02-16T05:07:38;8.20;;;5.27;;
82793;SDS011;72533;52.852;6.176;2024-02-16T05:10:03;5.63;;;3.47;;
82793;SDS011;72533;52.852;6.176;2024-02-16T05:12:28;7.88;;;3.03;;
82793;SDS011;72533;52.852;6.176;2024-02-16T05:14:54;7.65;;;2.90;;
82793;SDS011;72533;52.852;6.176;2024-02-16T05:17:19;8.63;;;3.53;;
82793;SDS011;72533;52.852;6.176;2024-02-16T05:19:48;8.68;;;3.35;;
82793;SDS011;72533;52.852;6.176;2024-02-16T05:22:13;6.78;;;3.58;;
82793;SDS011;72533;52.852;6.176;2024-02-16T05:24:39;12.40;;;3.53;;
82793;SDS011;72533;52.852;6.176;2024-02-16T05:27:04;6.43;;;4.10;;
82793;SDS011;72533;52.852;6.176;2024-02-16T05:29:29;6.40;;;3.37;;
82793;SDS011;72533;52.852;6.176;2024-02-16T05:31:54;4.87;;;1.87;;
82793;SDS011;72533;52.852;6.176;2024-02-16T05:34:19;6.50;;;3.83;;
82793;SDS011;72533;52.852;6.176;2024-02-16T05:36:45;8.70;;;3.08;;
82793;SDS011;72533;52.852;6.176;2024-02-16T05:39:10;8.30;;;3.47;;
82793;SDS011;72533;52.852;6.176;2024-02-16T05:41:46;8.10;;;4.30;;
82793;SDS011;72533;52.852;6.176;2024-02-16T05:44:11;6.30;;;2.65;;
82793;SDS011;72533;52.852;6.176;2024-02-16T05:46:36;8.50;;;2.77;;
82793;SDS011;72533;52.852;6.176;2024-02-16T05:49:03;7.13;;;3.92;;
82793;SDS011;72533;52.852;6.176;2024-02-16T05:51:34;8.65;;;3.92;;
82793;SDS011;72533;52.852;6.176;2024-02-16T05:53:59;7.03;;;3.58;;
82793;SDS011;72533;52.852;6.176;2024-02-16T05:56:24;7.97;;;3.13;;
82793;SDS011;72533;52.852;6.176;2024-02-16T05:58:50;6.30;;;3.03;;
82793;SDS011;72533;52.852;6.176;2024-02-16T06:01:15;5.67;;;2.30;;
82793;SDS011;72533;52.852;6.176;2024-02-16T06:03:41;7.03;;;3.17;;
82793;SDS011;72533;52.852;6.176;2024-02-16T06:06:06;7.80;;;3.50;;
82793;SDS011;72533;52.852;6.176;2024-02-16T06:08:33;7.38;;;3.50;;
82793;SDS011;72533;52.852;6.176;2024-02-16T06:10:58;8.60;;;3.63;;
82793;SDS011;72533;52.852;6.176;2024-02-16T06:13:23;8.90;;;3.97;;
82793;SDS011;72533;52.852;6.176;2024-02-16T06:15:48;6.87;;;2.90;;
82793;SDS011;72533;52.852;6.176;2024-02-16T06:18:14;7.27;;;3.30;;
82793;SDS011;72533;52.852;6.176;2024-02-16T06:20:39;6.80;;;3.40;;
82793;SDS011;72533;52.852;6.176;2024-02-16T06:23:04;9.67;;;3.70;;
82793;SDS011;72533;52.852;6.176;2024-02-16T06:25:29;7.90;;;2.60;;
82793;SDS011;72533;52.852;6.176;2024-02-16T06:27:54;9.87;;;3.73;;
82793;SDS011;72533;52.852;6.176;2024-02-16T06:30:20;6.87;;;2.40;;
82793;SDS011;72533;52.852;6.176;2024-02-16T06:32:45;8.73;;;3.27;;
82793;SDS011;72533;52.852;6.176;2024-02-16T06:35:10;7.60;;;3.30;;
82793;SDS011;72533;52.852;6.176;2024-02-16T06:37:36;8.60;;;4.25;;
82793;SDS011;72533;52.852;6.176;2024-02-16T06:40:03;7.88;;;3.33;;
82793;SDS011;72533;52.852;6.176;2024-02-16T06:42:29;9.00;;;3.80;;
82793;SDS011;72533;52.852;6.176;2024-02-16T06:44:55;8.60;;;3.85;;
82793;SDS011;72533;52.852;6.176;2024-02-16T06:47:20;7.93;;;4.33;;
82793;SDS011;72533;52.852;6.176;2024-02-16T06:49:48;7.32;;;2.92;;
82793;SDS011;72533;52.852;6.176;2024-02-16T06:52:13;9.43;;;3.33;;
82793;SDS011;72533;52.852;6.176;2024-02-16T06:54:38;7.67;;;3.50;;
82793;SDS011;72533;52.852;6.176;2024-02-16T06:57:03;7.13;;;3.17;;
82793;SDS011;72533;52.852;6.176;2024-02-16T06:59:29;9.20;;;4.63;;
82793;SDS011;72533;52.852;6.176;2024-02-16T07:01:54;8.90;;;3.37;;
82793;SDS011;72533;52.852;6.176;2024-02-16T07:04:19;6.57;;;3.07;;
82793;SDS011;72533;52.852;6.176;2024-02-16T07:06:44;7.93;;;3.87;;
82793;SDS011;72533;52.852;6.176;2024-02-16T07:09:09;7.50;;;3.93;;
82793;SDS011;72533;52.852;6.176;2024-02-16T07:11:35;8.00;;;2.90;;
82793;SDS011;72533;52.852;6.176;2024-02-16T07:14:00;8.73;;;3.13;;
82793;SDS011;72533;52.852;6.176;2024-02-16T07:16:27;9.13;;;3.70;;
82793;SDS011;72533;52.852;6.176;2024-02-16T07:18:52;9.57;;;3.57;;
82793;SDS011;72533;52.852;6.176;2024-02-16T07:21:17;9.50;;;3.27;;
82793;SDS011;72533;52.852;6.176;2024-02-16T07:26:10;5.57;;;2.47;;
82793;SDS011;72533;52.852;6.176;2024-02-16T07:28:35;6.90;;;3.40;;
82793;SDS011;72533;52.852;6.176;2024-02-16T07:31:01;7.10;;;3.63;;
82793;SDS011;72533;52.852;6.176;2024-02-16T07:33:26;9.35;;;6.35;;
82793;SDS011;72533;52.852;6.176;2024-02-16T07:35:53;8.95;;;4.25;;
82793;SDS011;72533;52.852;6.176;2024-02-16T07:38:19;6.90;;;4.18;;
82793;SDS011;72533;52.852;6.176;2024-02-16T07:40:46;7.22;;;3.05;;
82793;SDS011;72533;52.852;6.176;2024-02-16T07:43:11;7.53;;;3.10;;
82793;SDS011;72533;52.852;6.176;2024-02-16T07:45:37;8.23;;;3.93;;
82793;SDS011;72533;52.852;6.176;2024-02-16T07:48:02;7.97;;;3.60;;
82793;SDS011;72533;52.852;6.176;2024-02-16T07:50:30;11.25;;;3.63;;
82793;SDS011;72533;52.852;6.176;2024-02-16T07:52:55;8.15;;;4.18;;
82793;SDS011;72533;52.852;6.176;2024-02-16T07:55:21;8.87;;;3.60;;
82793;SDS011;72533;52.852;6.176;2024-02-16T07:57:47;10.27;;;3.33;;
82793;SDS011;72533;52.852;6.176;2024-02-16T08:00:13;8.60;;;4.33;;
82793;SDS011;72533;52.852;6.176;2024-02-16T08:02:40;11.85;;;4.00;;
82793;SDS011;72533;52.852;6.176;2024-02-16T08:05:08;7.10;;;3.33;;
82793;SDS011;72533;52.852;6.176;2024-02-16T08:07:33;8.40;;;3.90;;
82793;SDS011;72533;52.852;6.176;2024-02-16T08:09:59;7.87;;;3.40;;
82793;SDS011;72533;52.852;6.176;2024-02-16T08:12:25;8.40;;;4.55;;
82793;SDS011;72533;52.852;6.176;2024-02-16T08:14:52;9.93;;;3.78;;
82793;SDS011;72533;52.852;6.176;2024-02-16T08:17:18;8.13;;;4.47;;
82793;SDS011;72533;52.852;6.176;2024-02-16T08:19:43;10.13;;;4.53;;
82793;SDS011;72533;52.852;6.176;2024-02-16T08:22:08;9.33;;;3.47;;
82793;SDS011;72533;52.852;6.176;2024-02-16T08:24:36;7.47;;;4.37;;
82793;SDS011;72533;52.852;6.176;2024-02-16T08:29:26;8.27;;;3.58;;
82793;SDS011;72533;52.852;6.176;2024-02-16T08:31:52;7.20;;;3.27;;
82793;SDS011;72533;52.852;6.176;2024-02-16T08:34:17;6.43;;;3.80;;
82793;SDS011;72533;52.852;6.176;2024-02-16T08:36:49;8.60;;;4.43;;
82793;SDS011;72533;52.852;6.176;2024-02-16T08:39:14;7.32;;;3.75;;
82793;SDS011;72533;52.852;6.176;2024-02-16T08:41:40;7.00;;;3.00;;
82793;SDS011;72533;52.852;6.176;2024-02-16T08:44:08;8.23;;;3.83;;
82793;SDS011;72533;52.852;6.176;2024-02-16T08:46:35;7.18;;;3.33;;
82793;SDS011;72533;52.852;6.176;2024-02-16T08:49:01;7.35;;;3.05;;
82793;SDS011;72533;52.852;6.176;2024-02-16T08:51:26;7.87;;;3.07;;
82793;SDS011;72533;52.852;6.176;2024-02-16T08:53:51;10.07;;;3.80;;
82793;SDS011;72533;52.852;6.176;2024-02-16T08:56:16;10.80;;;4.00;;
82793;SDS011;72533;52.852;6.176;2024-02-16T08:58:41;7.43;;;3.77;;
82793;SDS011;72533;52.852;6.176;2024-02-16T09:01:07;7.53;;;3.20;;
82793;SDS011;72533;52.852;6.176;2024-02-16T09:03:32;7.93;;;3.70;;
82793;SDS011;72533;52.852;6.176;2024-02-16T09:06:02;9.57;;;3.72;;
82793;SDS011;72533;52.852;6.176;2024-02-16T09:08:27;7.93;;;3.95;;
82793;SDS011;72533;52.852;6.176;2024-02-16T09:10:55;7.57;;;3.00;;
82793;SDS011;72533;52.852;6.176;2024-02-16T09:13:21;9.97;;;3.43;;
82793;SDS011;72533;52.852;6.176;2024-02-16T09:15:46;7.77;;;3.93;;
82793;SDS011;72533;52.852;6.176;2024-02-16T09:18:12;7.88;;;4.45;;
82793;SDS011;72533;52.852;6.176;2024-02-16T09:20:37;9.73;;;3.90;;
82793;SDS011;72533;52.852;6.176;2024-02-16T09:23:03;8.27;;;4.53;;
82793;SDS011;72533;52.852;6.176;2024-02-16T09:25:28;7.43;;;3.53;;
82793;SDS011;72533;52.852;6.176;2024-02-16T09:27:54;9.90;;;4.77;;
82793;SDS011;72533;52.852;6.176;2024-02-16T09:30:19;8.60;;;5.23;;
82793;SDS011;72533;52.852;6.176;2024-02-16T09:32:46;10.73;;;3.92;;
82793;SDS011;72533;52.852;6.176;2024-02-16T09:35:11;7.57;;;3.17;;
82793;SDS011;72533;52.852;6.176;2024-02-16T09:37:38;7.43;;;3.07;;
82793;SDS011;72533;52.852;6.176;2024-02-16T09:40:04;8.45;;;3.40;;
82793;SDS011;72533;52.852;6.176;2024-02-16T09:42:29;9.32;;;3.90;;
82793;SDS011;72533;52.852;6.176;2024-02-16T09:44:54;6.93;;;2.77;;
82793;SDS011;72533;52.852;6.176;2024-02-16T09:47:20;8.45;;;4.50;;
82793;SDS011;72533;52.852;6.176;2024-02-16T09:49:47;9.15;;;3.95;;
82793;SDS011;72533;52.852;6.176;2024-02-16T09:52:12;7.13;;;4.35;;
82793;SDS011;72533;52.852;6.176;2024-02-16T09:54:38;7.07;;;4.37;;
82793;SDS011;72533;52.852;6.176;2024-02-16T09:57:06;8.85;;;4.22;;
82793;SDS011;72533;52.852;6.176;2024-02-16T09:59:31;7.23;;;2.73;;
82793;SDS011;72533;52.852;6.176;2024-02-16T10:02:01;8.35;;;3.65;;
82793;SDS011;72533;52.852;6.176;2024-02-16T10:04:26;6.82;;;3.58;;
82793;SDS011;72533;52.852;6.176;2024-02-16T10:06:51;8.20;;;4.23;;
82793;SDS011;72533;52.852;6.176;2024-02-16T10:09:24;9.82;;;4.03;;
82793;SDS011;72533;52.852;6.176;2024-02-16T10:11:50;10.38;;;5.05;;
82793;SDS011;72533;52.852;6.176;2024-02-16T10:14:15;9.15;;;4.68;;
82793;SDS011;72533;52.852;6.176;2024-02-16T10:16:41;12.27;;;3.90;;
82793;SDS011;72533;52.852;6.176;2024-02-16T10:19:07;7.33;;;3.87;;
82793;SDS011;72533;52.852;6.176;2024-02-16T10:21:32;9.60;;;4.18;;
82793;SDS011;72533;52.852;6.176;2024-02-16T10:26:27;9.20;;;3.75;;
82793;SDS011;72533;52.852;6.176;2024-02-16T10:28:54;8.82;;;6.00;;
82793;SDS011;72533;52.852;6.176;2024-02-16T10:31:19;8.95;;;3.88;;
82793;SDS011;72533;52.852;6.176;2024-02-16T10:33:52;8.15;;;4.90;;
82793;SDS011;72533;52.852;6.176;2024-02-16T10:36:18;8.77;;;4.57;;
82793;SDS011;72533;52.852;6.176;2024-02-16T10:38:43;10.50;;;4.47;;
82793;SDS011;72533;52.852;6.176;2024-02-16T10:41:09;11.20;;;6.38;;
82793;SDS011;72533;52.852;6.176;2024-02-16T10:43:35;8.15;;;4.18;;
82793;SDS011;72533;52.852;6.176;2024-02-16T10:46:00;9.57;;;5.70;;
82793;SDS011;72533;52.852;6.176;2024-02-16T10:48:26;9.57;;;5.05;;
82793;SDS011;72533;52.852;6.176;2024-02-16T10:50:51;9.23;;;5.40;;
82793;SDS011;72533;52.852;6.176;2024-02-16T10:55:43;17.00;;;7.15;;
82793;SDS011;72533;52.852;6.176;2024-02-16T10:58:09;11.07;;;5.25;;
82793;SDS011;72533;52.852;6.176;2024-02-16T11:00:35;14.73;;;6.43;;
82793;SDS011;72533;52.852;6.176;2024-02-16T11:03:01;11.63;;;6.90;;
82793;SDS011;72533;52.852;6.176;2024-02-16T11:05:39;13.35;;;6.65;;
82793;SDS011;72533;52.852;6.176;2024-02-16T11:08:11;11.05;;;5.82;;
82793;SDS011;72533;52.852;6.176;2024-02-16T11:10:36;15.25;;;7.32;;
82793;SDS011;72533;52.852;6.176;2024-02-16T11:13:02;13.17;;;6.57;;
82793;SDS011;72533;52.852;6.176;2024-02-16T11:15:32;12.35;;;5.05;;
82793;SDS011;72533;52.852;6.176;2024-02-16T11:18:01;13.65;;;6.57;;
82793;SDS011;72533;52.852;6.176;2024-02-16T11:20:27;13.18;;;5.65;;
82793;SDS011;72533;52.852;6.176;2024-02-16T11:22:52;16.70;;;8.67;;
82793;SDS011;72533;52.852;6.176;2024-02-16T11:25:18;14.25;;;7.80;;
82793;SDS011;72533;52.852;6.176;2024-02-16T11:27:43;16.03;;;6.80;;
82793;SDS011;72533;52.852;6.176;2024-02-16T11:30:10;12.80;;;7.50;;
82793;SDS011;72533;52.852;6.176;2024-02-16T11:32:35;13.25;;;6.63;;
82793;SDS011;72533;52.852;6.176;2024-02-16T11:35:07;14.52;;;6.00;;
82793;SDS011;72533;52.852;6.176;2024-02-16T11:37:33;9.45;;;5.55;;
82793;SDS011;72533;52.852;6.176;2024-02-16T11:39:58;9.70;;;5.78;;
82793;SDS011;72533;52.852;6.176;2024-02-16T11:42:23;13.87;;;6.03;;
82793;SDS011;72533;52.852;6.176;2024-02-16T11:44:55;15.30;;;7.80;;
82793;SDS011;72533;52.852;6.176;2024-02-16T11:47:20;11.07;;;6.40;;
82793;SDS011;72533;52.852;6.176;2024-02-16T11:49:58;14.45;;;7.10;;
82793;SDS011;72533;52.852;6.176;2024-02-16T11:52:24;12.32;;;6.43;;
82793;SDS011;72533;52.852;6.176;2024-02-16T11:54:49;11.85;;;5.65;;
82793;SDS011;72533;52.852;6.176;2024-02-16T11:57:15;11.43;;;6.07;;
82793;SDS011;72533;52.852;6.176;2024-02-16T11:59:40;11.47;;;6.33;;
82793;SDS011;72533;52.852;6.176;2024-02-16T12:02:05;12.75;;;6.35;;
82793;SDS011;72533;52.852;6.176;2024-02-16T12:04:31;12.10;;;6.80;;
82793;SDS011;72533;52.852;6.176;2024-02-16T12:07:00;10.93;;;6.40;;
82793;SDS011;72533;52.852;6.176;2024-02-16T12:09:26;11.70;;;4.57;;
82793;SDS011;72533;52.852;6.176;2024-02-16T12:11:53;9.57;;;4.30;;
82793;SDS011;72533;52.852;6.176;2024-02-16T12:14:19;9.48;;;5.07;;
82793;SDS011;72533;52.852;6.176;2024-02-16T12:16:49;8.38;;;4.15;;
82793;SDS011;72533;52.852;6.176;2024-02-16T12:19:15;10.52;;;5.07;;
82793;SDS011;72533;52.852;6.176;2024-02-16T12:21:40;8.93;;;4.88;;
82793;SDS011;72533;52.852;6.176;2024-02-16T12:24:06;11.38;;;5.35;;
82793;SDS011;72533;52.852;6.176;2024-02-16T12:26:31;8.43;;;3.63;;
82793;SDS011;72533;52.852;6.176;2024-02-16T12:28:56;9.37;;;4.40;;
82793;SDS011;72533;52.852;6.176;2024-02-16T12:31:21;9.30;;;4.47;;
82793;SDS011;72533;52.852;6.176;2024-02-16T12:33:47;9.10;;;4.07;;
82793;SDS011;72533;52.852;6.176;2024-02-16T12:36:12;8.43;;;3.65;;
82793;SDS011;72533;52.852;6.176;2024-02-16T12:38:37;11.00;;;4.73;;
82793;SDS011;72533;52.852;6.176;2024-02-16T12:41:02;6.47;;;3.63;;
82793;SDS011;72533;52.852;6.176;2024-02-16T12:43:28;7.00;;;2.70;;
82793;SDS011;72533;52.852;6.176;2024-02-16T12:45:53;8.00;;;4.18;;
82793;SDS011;72533;52.852;6.176;2024-02-16T12:48:18;9.67;;;3.93;;
82793;SDS011;72533;52.852;6.176;2024-02-16T12:50:45;7.35;;;4.15;;
82793;SDS011;72533;52.852;6.176;2024-02-16T12:53:12;8.15;;;3.83;;
82793;SDS011;72533;52.852;6.176;2024-02-16T12:55:37;8.13;;;3.60;;
82793;SDS011;72533;52.852;6.176;2024-02-16T12:58:02;7.03;;;4.13;;
82793;SDS011;72533;52.852;6.176;2024-02-16T13:00:27;9.53;;;3.40;;
82793;SDS011;72533;52.852;6.176;2024-02-16T13:02:53;9.65;;;4.32;;
82793;SDS011;72533;52.852;6.176;2024-02-16T13:05:19;9.17;;;4.07;;
82793;SDS011;72533;52.852;6.176;2024-02-16T13:07:44;8.67;;;3.40;;
82793;SDS011;72533;52.852;6.176;2024-02-16T13:10:09;7.03;;;3.10;;
82793;SDS011;72533;52.852;6.176;2024-02-16T13:12:34;7.70;;;4.90;;
82793;SDS011;72533;52.852;6.176;2024-02-16T13:15:00;7.05;;;3.05;;
82793;SDS011;72533;52.852;6.176;2024-02-16T13:17:27;9.15;;;4.63;;
82793;SDS011;72533;52.852;6.176;2024-02-16T13:19:52;7.93;;;2.87;;
82793;SDS011;72533;52.852;6.176;2024-02-16T13:22:17;6.17;;;2.63;;
82793;SDS011;72533;52.852;6.176;2024-02-16T13:24:43;7.05;;;2.30;;
82793;SDS011;72533;52.852;6.176;2024-02-16T13:27:08;7.55;;;2.97;;
82793;SDS011;72533;52.852;6.176;2024-02-16T13:29:33;6.35;;;2.58;;
82793;SDS011;72533;52.852;6.176;2024-02-16T13:31:59;7.30;;;2.67;;
82793;SDS011;72533;52.852;6.176;2024-02-16T13:34:24;6.90;;;2.53;;
82793;SDS011;72533;52.852;6.176;2024-02-16T13:36:51;7.80;;;3.40;;
82793;SDS011;72533;52.852;6.176;2024-02-16T13:39:16;7.53;;;3.10;;
82793;SDS011;72533;52.852;6.176;2024-02-16T13:41:42;5.95;;;2.75;;
82793;SDS011;72533;52.852;6.176;2024-02-16T13:44:09;7.60;;;2.90;;
82793;SDS011;72533;52.852;6.176;2024-02-16T13:46:34;6.93;;;3.20;;
82793;SDS011;72533;52.852;6.176;2024-02-16T13:49:00;7.35;;;4.97;;
82793;SDS011;72533;52.852;6.176;2024-02-16T13:51:25;8.03;;;2.87;;
82793;SDS011;72533;52.852;6.176;2024-02-16T13:53:50;6.37;;;2.27;;
82793;SDS011;72533;52.852;6.176;2024-02-16T13:56:16;6.85;;;3.63;;
82793;SDS011;72533;52.852;6.176;2024-02-16T13:58:41;7.60;;;2.93;;
82793;SDS011;72533;52.852;6.176;2024-02-16T14:01:07;9.20;;;2.73;;
82793;SDS011;72533;52.852;6.176;2024-02-16T14:03:32;6.90;;;3.90;;
82793;SDS011;72533;52.852;6.176;2024-02-16T14:05:58;6.47;;;2.75;;
82793;SDS011;72533;52.852;6.176;2024-02-16T14:08:23;5.45;;;1.63;;
82793;SDS011;72533;52.852;6.176;2024-02-16T14:10:49;6.43;;;2.47;;
82793;SDS011;72533;52.852;6.176;2024-02-16T14:13:14;7.67;;;2.67;;
82793;SDS011;72533;52.852;6.176;2024-02-16T14:15:41;6.25;;;1.58;;
82793;SDS011;72533;52.852;6.176;2024-02-16T14:18:07;10.35;;;3.95;;
82793;SDS011;72533;52.852;6.176;2024-02-16T14:20:32;7.90;;;3.43;;
82793;SDS011;72533;52.852;6.176;2024-02-16T14:22:57;5.90;;;2.10;;
82793;SDS011;72533;52.852;6.176;2024-02-16T14:25:22;7.60;;;3.30;;
82793;SDS011;72533;52.852;6.176;2024-02-16T14:27:49;8.82;;;3.75;;
82793;SDS011;72533;52.852;6.176;2024-02-16T14:30:14;8.03;;;2.60;;
82793;SDS011;72533;52.852;6.176;2024-02-16T14:32:39;11.13;;;6.63;;
82793;SDS011;72533;52.852;6.176;2024-02-16T14:35:06;6.70;;;2.70;;
82793;SDS011;72533;52.852;6.176;2024-02-16T14:37:31;7.45;;;2.40;;
82793;SDS011;72533;52.852;6.176;2024-02-16T14:39:57;8.88;;;4.45;;
82793;SDS011;72533;52.852;6.176;2024-02-16T14:42:24;6.93;;;2.78;;
82793;SDS011;72533;52.852;6.176;2024-02-16T14:44:49;7.88;;;2.58;;
82793;SDS011;72533;52.852;6.176;2024-02-16T14:47:14;8.40;;;2.97;;